createdAt,value
2022-08-21T00:01:49.563Z,100833.50
2022-08-21T00:04:22.294Z,100830.28
2022-08-21T00:06:51.578Z,100830.28
2022-08-21T00:09:21.341Z,100833.50
2022-08-21T00:11:50.296Z,100833.13
2022-08-21T00:14:20.603Z,100828.47
2022-08-21T00:16:49.295Z,100830.84
2022-08-21T00:19:17.912Z,100825.38
2022-08-21T00:21:46.615Z,100825.47
2022-08-21T00:24:15.464Z,100827.16
2022-08-21T00:26:44.600Z,100829.53
2022-08-21T00:29:13.539Z,100824.28
2022-08-21T00:31:44.151Z,100831.53
2022-08-21T00:34:13.585Z,100825.22
2022-08-21T00:36:42.362Z,100832.81
2022-08-21T00:39:11.461Z,100826.97
2022-08-21T00:41:41.155Z,100828.88
2022-08-21T00:44:14.304Z,100823.75
2022-08-21T00:46:45.702Z,100819.81
2022-08-21T00:49:14.999Z,100819.81
2022-08-21T00:51:47.640Z,100826.84
2022-08-21T00:54:18.640Z,100819.31
2022-08-21T00:56:50.957Z,100821.38
2022-08-21T00:59:21.522Z,100820.75
2022-08-21T01:01:53.342Z,100820.13
2022-08-21T01:04:22.723Z,100825.84
2022-08-21T01:06:52.644Z,100829.50
2022-08-21T01:09:21.347Z,100821.38
2022-08-21T01:11:50.207Z,100824.97
2022-08-21T01:14:20.735Z,100820.06
2022-08-21T01:16:53.534Z,100827.81
2022-08-21T01:19:23.394Z,100826.97
2022-08-21T01:21:54.888Z,100824.25
2022-08-21T01:24:24.052Z,100827.66
2022-08-21T01:26:53.404Z,100823.38
2022-08-21T01:29:32.788Z,100815.16
2022-08-21T01:32:36.600Z,100807.84
2022-08-21T01:35:07.151Z,100805.75
2022-08-21T01:37:37.601Z,100813.38
2022-08-21T01:40:07.360Z,100816.94
2022-08-21T01:42:36.327Z,100822.50
2022-08-21T01:45:05.464Z,100819.06
2022-08-21T01:47:33.995Z,100826.91
2022-08-21T01:50:02.633Z,100824.63
2022-08-21T01:52:31.800Z,100822.38
2022-08-21T01:55:01.872Z,100819.84
2022-08-21T01:57:31.636Z,100816.91
2022-08-21T02:00:00.055Z,100828.28
2022-08-21T02:02:28.562Z,100826.69
2022-08-21T02:04:57.072Z,100824.81
2022-08-21T02:07:25.776Z,100815.38
2022-08-21T02:09:54.191Z,100830.81
2022-08-21T02:12:25.874Z,100832.41
2022-08-21T02:15:14.356Z,100823.59
2022-08-21T02:17:44.707Z,100825.91
2022-08-21T02:20:18.130Z,100827.66
2022-08-21T02:22:46.645Z,100828.69
2022-08-21T02:25:15.363Z,100825.75
2022-08-21T02:27:48.621Z,100831.22
2022-08-21T02:30:20.094Z,100838.34
2022-08-21T02:32:48.982Z,100826.97
2022-08-21T02:35:17.609Z,100831.22
2022-08-21T02:37:48.824Z,100829.31
2022-08-21T02:40:19.121Z,100842.38
2022-08-21T02:42:49.327Z,100833.19
2022-08-21T02:45:19.582Z,100835.94
2022-08-21T02:47:51.186Z,100835.69
2022-08-21T02:50:23.230Z,100838.16
2022-08-21T02:52:55.050Z,100841.31
2022-08-21T02:55:27.578Z,100851.88
2022-08-21T02:57:59.026Z,100841.84
2022-08-21T03:00:29.555Z,100839.34
2022-08-21T03:02:59.176Z,100838.22
2022-08-21T03:05:29.481Z,100842.38
2022-08-21T03:07:58.536Z,100848.44
2022-08-21T03:10:28.139Z,100851.69
2022-08-21T03:12:58.097Z,100839.16
2022-08-21T03:15:27.127Z,100852.78
2022-08-21T03:17:56.329Z,100844.19
2022-08-21T03:20:26.871Z,100849.41
2022-08-21T03:22:56.523Z,100837.72
2022-08-21T03:25:40.342Z,100852.63
2022-08-21T03:28:13.681Z,100856.19
2022-08-21T03:30:42.503Z,100853.06
2022-08-21T03:33:12.344Z,100850.47
2022-08-21T03:35:44.685Z,100858.91
2022-08-21T03:38:14.329Z,100852.16
2022-08-21T03:40:43.847Z,100856.19
2022-08-21T03:43:13.903Z,100859.38
2022-08-21T03:45:42.712Z,100860.09
2022-08-21T03:48:11.330Z,100855.22
2022-08-21T03:50:44.635Z,100850.78
2022-08-21T03:53:16.488Z,100863.03
2022-08-21T03:55:47.793Z,100856.81
2022-08-21T03:58:19.600Z,100857.78
2022-08-21T04:00:49.920Z,100854.81
2022-08-21T04:03:19.159Z,100848.06
2022-08-21T04:05:48.004Z,100853.81
2022-08-21T04:08:19.722Z,100846.47
2022-08-21T04:10:51.076Z,100843.59
2022-08-21T04:13:21.551Z,100841.72
2022-08-21T04:15:50.419Z,100845.50
2022-08-21T04:18:19.446Z,100843.84
2022-08-21T04:20:50.707Z,100839.09
2022-08-21T04:23:24.313Z,100845.97
2022-08-21T04:25:54.844Z,100853.56
2022-08-21T04:28:28.820Z,100850.16
2022-08-21T04:30:59.574Z,100853.09
2022-08-21T04:33:28.178Z,100860.69
2022-08-21T04:35:56.619Z,100848.97
2022-08-21T04:38:25.160Z,100859.03
2022-08-21T04:40:54.309Z,100864.06
2022-08-21T04:43:24.546Z,100863.25
2022-08-21T04:45:55.907Z,100864.53
2022-08-21T04:48:26.335Z,100861.78
2022-08-21T04:50:59.563Z,100862.59
2022-08-21T04:53:34.504Z,100867.66
2022-08-21T04:56:06.683Z,100870.00
2022-08-21T04:58:36.659Z,100863.03
2022-08-21T05:01:09.402Z,100864.09
2022-08-21T05:03:40.020Z,100868.09
2022-08-21T05:06:12.040Z,100863.47
2022-08-21T05:08:41.963Z,100862.19
2022-08-21T05:11:10.515Z,100860.28
2022-08-21T05:13:39.018Z,100859.88
2022-08-21T05:16:09.362Z,100857.28
2022-08-21T05:18:37.774Z,100857.75
2022-08-21T05:21:06.475Z,100853.25
2022-08-21T05:23:34.956Z,100854.41
2022-08-21T05:26:03.569Z,100850.19
2022-08-21T05:28:32.141Z,100851.41
2022-08-21T05:31:00.811Z,100848.63
2022-08-21T05:33:30.730Z,100852.94
2022-08-21T05:35:59.539Z,100848.88
2022-08-21T05:38:29.692Z,100843.13
2022-08-21T11:19:32.667Z,100677.13
2022-08-21T11:22:10.243Z,100668.59
2022-08-21T11:24:46.719Z,100668.34
2022-08-21T11:27:23.020Z,100673.06
2022-08-21T11:29:54.779Z,100679.66
2022-08-21T11:32:38.060Z,100679.94
2022-08-21T11:35:19.385Z,100685.19
2022-08-21T11:38:04.640Z,100680.72
2022-08-21T11:40:46.904Z,100672.78
2022-08-21T11:43:25.530Z,100673.53
2022-08-21T11:45:56.175Z,100668.00
2022-08-21T11:48:41.579Z,100668.34
2022-08-21T11:51:14.924Z,100677.13
2022-08-21T11:53:54.255Z,100659.75
2022-08-21T11:56:29.390Z,100664.19
2022-08-21T11:59:02.911Z,100659.44
2022-08-21T12:01:37.101Z,100658.66
2022-08-21T12:04:10.639Z,100664.16
2022-08-21T12:06:43.883Z,100653.13
2022-08-21T12:09:35.542Z,100649.81
2022-08-21T12:12:07.534Z,100648.69
2022-08-21T12:14:41.668Z,100649.88
2022-08-21T12:17:20.540Z,100650.69
2022-08-21T12:20:00.394Z,100647.38
2022-08-21T12:22:42.148Z,100656.50
2022-08-21T12:25:15.754Z,100657.31
2022-08-21T12:27:49.035Z,100649.28
2022-08-21T12:30:36.735Z,100647.63
2022-08-21T12:33:08.326Z,100652.06
2022-08-21T12:35:41.491Z,100657.56
2022-08-21T12:38:18.079Z,100657.03
2022-08-21T12:40:48.658Z,100653.16
2022-08-21T12:43:22.470Z,100650.41
2022-08-21T12:45:53.547Z,100656.97
2022-08-21T12:48:27.568Z,100658.97
2022-08-21T12:50:58.706Z,100656.97
2022-08-21T12:53:32.946Z,100649.00
2022-08-21T12:56:04.820Z,100646.00
2022-08-21T12:58:34.079Z,100643.53
2022-08-21T13:01:07.055Z,100645.72
2022-08-21T13:03:39.826Z,100644.84
2022-08-21T13:06:10.705Z,100639.34
2022-08-21T13:08:45.511Z,100646.78
2022-08-21T13:11:32.598Z,100642.09
2022-08-21T13:14:05.711Z,100644.28
2022-08-21T13:16:35.680Z,100639.59
2022-08-21T13:19:07.932Z,100639.06
2022-08-21T13:21:37.794Z,100637.44
2022-08-21T13:24:40.803Z,100634.66
2022-08-21T13:27:06.140Z,100631.06
2022-08-21T13:29:38.507Z,100639.13
2022-08-21T13:32:09.038Z,100623.38
2022-08-21T13:34:39.943Z,100629.16
2022-08-21T13:37:10.941Z,100630.25
2022-08-21T13:39:41.147Z,100621.72
2022-08-21T13:42:15.004Z,100624.19
2022-08-21T13:44:47.926Z,100625.03
2022-08-21T13:47:18.581Z,100631.66
2022-08-21T13:49:50.074Z,100635.50
2022-08-21T13:52:21.534Z,100629.16
2022-08-21T13:54:57.422Z,100615.09
2022-08-21T13:57:31.148Z,100612.59
2022-08-21T14:00:14.834Z,100611.47
2022-08-21T14:02:45.700Z,100611.50
2022-08-21T14:05:21.766Z,100603.22
2022-08-21T14:07:52.099Z,100602.94
2022-08-21T14:10:24.515Z,100609.28
2022-08-21T14:12:55.434Z,100606.28
2022-08-21T14:15:29.583Z,100605.13
2022-08-21T14:18:10.463Z,100609.28
2022-08-21T14:20:39.241Z,100602.97
2022-08-21T14:23:07.695Z,100594.69
2022-08-21T14:25:43.777Z,100601.56
2022-08-21T14:28:21.032Z,100607.06
2022-08-21T14:30:51.586Z,100608.69
2022-08-21T14:33:28.274Z,100607.63
2022-08-21T14:35:56.951Z,100607.06
2022-08-21T14:38:27.401Z,100614.28
2022-08-21T14:41:01.609Z,100609.84
2022-08-21T14:43:30.920Z,100610.94
2022-08-21T14:45:59.397Z,100603.19
2022-08-21T14:48:27.957Z,100613.41
2022-08-21T14:51:00.347Z,100611.19
2022-08-21T14:53:29.264Z,100609.81
2022-08-21T14:56:08.003Z,100606.75
2022-08-21T14:58:39.150Z,100603.78
2022-08-21T15:01:08.793Z,100611.50
2022-08-21T15:03:37.748Z,100612.88
2022-08-21T15:06:08.506Z,100605.13
2022-08-21T15:08:37.236Z,100613.13
2022-08-21T15:11:12.013Z,100606.75
2022-08-21T15:13:42.585Z,100608.72
2022-08-21T15:16:13.165Z,100602.34
2022-08-21T15:18:42.916Z,100600.94
2022-08-21T15:21:11.442Z,100600.13
2022-08-21T15:23:43.743Z,100600.41
2022-08-21T15:26:13.978Z,100602.63
2022-08-21T15:28:42.776Z,100601.53
2022-08-21T15:31:11.273Z,100605.09
2022-08-21T15:33:39.745Z,100607.03
2022-08-21T15:36:08.914Z,100599.31
2022-08-21T15:38:37.469Z,100604.84
2022-08-21T15:41:07.178Z,100598.50
2022-08-21T15:43:42.976Z,100604.28
2022-08-21T15:46:14.192Z,100591.88
2022-08-21T15:48:42.682Z,100599.59
2022-08-21T15:51:12.407Z,100595.72
2022-08-21T15:53:41.570Z,100589.06
2022-08-21T15:56:19.978Z,100591.28
2022-08-21T15:58:50.287Z,100592.66
2022-08-21T16:01:26.072Z,100598.16
2022-08-21T16:03:56.347Z,100604.22
2022-08-21T16:06:37.704Z,100600.41
2022-08-21T16:09:07.876Z,100592.94
2022-08-21T16:11:36.381Z,100592.13
2022-08-21T16:14:09.451Z,100593.78
2022-08-21T16:16:38.584Z,100594.88
2022-08-21T16:19:08.140Z,100583.84
2022-08-21T16:21:37.372Z,100580.81
2022-08-21T16:24:06.390Z,100583.56
2022-08-21T16:26:35.075Z,100584.09
2022-08-21T16:29:04.464Z,100582.44
2022-08-21T16:31:34.711Z,100589.03
2022-08-21T16:34:04.056Z,100583.78
2022-08-21T16:36:32.604Z,100582.44
2022-08-21T16:39:02.349Z,100586.53
2022-08-21T16:41:35.776Z,100586.25
2022-08-21T16:44:05.156Z,100576.06
2022-08-21T16:46:37.640Z,100582.97
2022-08-21T16:49:06.150Z,100583.25
2022-08-21T16:51:34.595Z,100585.72
2022-08-21T16:54:03.175Z,100585.69
2022-08-21T16:56:31.762Z,100581.84
2022-08-21T16:59:00.470Z,100590.94
2022-08-21T17:01:31.536Z,100586.50
2022-08-21T17:04:02.161Z,100598.94
2022-08-21T17:06:31.492Z,100593.09
2022-08-21T17:09:01.721Z,100590.34
2022-08-21T17:11:37.567Z,100604.09
2022-08-21T17:14:09.640Z,100596.91
2022-08-21T17:16:39.507Z,100594.72
2022-08-21T17:19:09.955Z,100599.94
2022-08-21T17:21:38.495Z,100599.34
2022-08-21T17:24:07.206Z,100599.88
2022-08-21T17:26:36.556Z,100598.78
2022-08-21T17:29:09.930Z,100592.13
2022-08-21T17:31:40.383Z,100591.56
2022-08-21T17:34:11.634Z,100587.97
2022-08-21T17:36:40.131Z,100586.56
2022-08-21T17:39:10.034Z,100587.69
2022-08-21T17:41:38.636Z,100589.31
2022-08-21T17:44:11.105Z,100593.16
2022-08-21T17:46:41.108Z,100588.22
2022-08-21T17:49:11.916Z,100580.75
2022-08-21T17:51:40.700Z,100586.84
2022-08-21T17:54:09.337Z,100583.81
2022-08-21T17:56:40.786Z,100592.59
2022-08-21T17:59:10.574Z,100593.69
2022-08-21T18:01:42.723Z,100588.16
2022-08-21T18:04:13.454Z,100599.75
2022-08-21T18:06:42.378Z,100600.34
2022-08-21T18:09:12.885Z,100600.56
2022-08-21T18:11:43.104Z,100600.56
2022-08-21T18:14:12.735Z,100598.88
2022-08-21T18:16:41.308Z,100601.63
2022-08-21T18:19:16.167Z,100596.63
2022-08-21T18:21:45.570Z,100600.47
2022-08-21T18:24:14.398Z,100609.81
2022-08-21T18:26:44.092Z,100596.34
2022-08-21T18:29:16.968Z,100603.66
2022-08-21T18:31:47.274Z,100607.75
2022-08-21T18:34:23.879Z,100600.34
2022-08-21T18:36:52.589Z,100600.84
2022-08-21T18:39:38.107Z,100600.53
2022-08-21T18:42:10.840Z,100602.97
2022-08-21T18:44:40.403Z,100605.44
2022-08-21T18:47:14.484Z,100605.44
2022-08-21T18:49:44.430Z,100607.66
2022-08-21T18:52:17.629Z,100605.97
2022-08-21T18:54:49.845Z,100604.59
2022-08-21T18:57:20.928Z,100612.56
2022-08-21T18:59:49.802Z,100604.59
2022-08-21T19:02:18.303Z,100609.59
2022-08-21T19:04:48.268Z,100605.16
2022-08-21T19:07:18.750Z,100608.72
2022-08-21T19:12:36.623Z,100611.25
2022-08-21T19:15:10.830Z,100611.78
2022-08-21T19:17:39.894Z,100616.47
2022-08-21T19:20:16.769Z,100612.66
2022-08-21T19:22:56.262Z,100605.72
2022-08-21T19:25:33.492Z,100617.00
2022-08-21T19:28:19.444Z,100613.94
2022-08-21T19:30:56.702Z,100615.03
2022-08-21T19:33:33.704Z,100615.56
2022-08-21T19:36:03.857Z,100614.44
2022-08-21T19:38:32.382Z,100611.66
2022-08-21T19:41:01.239Z,100610.03
2022-08-21T19:43:31.347Z,100613.28
2022-08-21T19:46:00.805Z,100615.47
2022-08-21T19:48:29.407Z,100620.41
2022-08-21T19:50:57.893Z,100611.66
2022-08-21T19:53:27.814Z,100616.59
2022-08-21T19:55:56.351Z,100618.22
2022-08-21T19:58:35.122Z,100616.56
2022-08-21T20:01:11.576Z,100611.59
2022-08-21T20:03:53.825Z,100613.22
2022-08-21T20:09:13.266Z,100611.84
2022-08-21T20:11:45.407Z,100618.69
2022-08-21T20:14:17.662Z,100617.06
2022-08-21T20:16:47.760Z,100616.47
2022-08-21T20:19:16.338Z,100612.63
2022-08-21T20:21:47.704Z,100617.25
2022-08-21T20:24:17.644Z,100612.28
2022-08-21T20:26:48.737Z,100614.13
2022-08-21T20:29:39.336Z,100614.13
2022-08-21T20:32:12.192Z,100616.66
2022-08-21T20:34:41.261Z,100616.94
2022-08-21T20:37:13.830Z,100619.13
2022-08-21T20:40:05.990Z,100622.16
2022-08-21T20:42:34.562Z,100615.00
2022-08-21T20:48:02.541Z,100614.09
2022-08-21T20:50:33.250Z,100622.28
2022-08-21T20:53:14.294Z,100629.91
2022-08-21T20:55:48.986Z,100625.94
2022-08-21T20:58:33.378Z,100626.22
2022-08-21T21:01:07.859Z,100618.78
2022-08-21T21:06:32.330Z,100627.13
2022-08-21T21:09:09.271Z,100620.16
2022-08-21T21:11:44.642Z,100624.75
2022-08-21T21:14:23.429Z,100615.19
2022-08-21T21:16:56.524Z,100619.25
2022-08-21T21:19:37.009Z,100618.69
2022-08-21T21:22:10.357Z,100610.19
2022-08-21T21:24:44.781Z,100614.53
2022-08-21T21:27:18.783Z,100614.28
2022-08-21T21:29:51.652Z,100606.28
2022-08-21T21:32:21.287Z,100613.13
2022-08-21T21:37:43.607Z,100610.38
2022-08-21T21:40:40.068Z,100615.03
2022-08-21T21:43:24.756Z,100618.31
2022-08-21T21:46:12.401Z,100619.44
2022-08-21T21:49:01.631Z,100612.88
2022-08-21T21:51:42.378Z,100614.50
2022-08-21T21:54:21.677Z,100617.78
2022-08-21T21:57:04.262Z,100623.28
2022-08-21T22:02:14.814Z,100619.13
2022-08-21T22:04:53.246Z,100616.06
2022-08-21T22:07:29.641Z,100615.50
2022-08-21T22:10:06.434Z,100613.91
2022-08-21T22:12:54.126Z,100618.81
2022-08-21T22:15:26.539Z,100611.97
2022-08-21T22:18:02.557Z,100619.41
2022-08-21T22:20:35.218Z,100620.22
2022-08-21T22:23:05.822Z,100621.06
2022-08-21T22:25:43.347Z,100613.91
2022-08-21T22:28:15.065Z,100618.31
2022-08-21T22:30:48.977Z,100617.16
2022-08-21T22:33:21.778Z,100608.69
2022-08-21T22:35:53.032Z,100610.88
2022-08-21T22:38:29.950Z,100613.06
2022-08-21T22:43:54.516Z,100621.00
2022-08-21T22:46:32.017Z,100619.06
2022-08-21T22:49:07.398Z,100613.59
2022-08-21T22:51:39.773Z,100617.94
2022-08-21T22:57:05.595Z,100617.34
2022-08-21T22:59:37.431Z,100619.50
2022-08-21T23:02:20.448Z,100612.59
2022-08-21T23:04:52.319Z,100619.41
2022-08-21T23:07:43.697Z,100620.81
2022-08-21T23:10:26.248Z,100628.81
2022-08-21T23:13:00.535Z,100619.72
2022-08-21T23:15:33.291Z,100622.97
2022-08-21T23:18:13.744Z,100617.50
2022-08-21T23:20:56.266Z,100621.06
2022-08-21T23:23:27.970Z,100628.97
2022-08-21T23:26:17.511Z,100631.00
2022-08-21T23:29:07.710Z,100633.75
2022-08-21T23:31:44.805Z,100626.31
2022-08-21T23:34:25.828Z,100633.47
2022-08-21T23:40:40.996Z,100636.47
2022-08-21T23:43:37.610Z,100635.66
2022-08-21T23:46:33.447Z,100641.97
2022-08-21T23:49:17.759Z,100632.06
2022-08-21T23:51:57.157Z,100637.81
2022-08-21T23:54:35.709Z,100636.16
2022-08-21T23:57:26.639Z,100647.66
